Time;durP1;ratioP1;P1;durP2;ratioP2;P2;SDS_P1;SDS_P2;PMS_P1;PMS_P2;Temp;Humidity;BMP_temperature;BMP_pressure;BME280_temperature;BME280_humidity;BME280_pressure;Samples;Min_cycle;Max_cycle;Signal;HPM_P1;HPM_P2
2023/03/28 00:02:26;;;;;;;1.90;0.70;;;16.40;56.20;;;;;;5096738;28;20544;-45
2023/03/28 00:04:56;;;;;;;2.23;0.83;;;16.40;56.30;;;;;;5109985;28;20231;-46
2023/03/28 00:07:28;;;;;;;1.53;1.00;;;16.40;56.30;;;;;;5108354;28;20196;-46
2023/03/28 00:09:56;;;;;;;1.67;0.83;;;16.40;56.30;;;;;;5096935;27;20612;-46
2023/03/28 00:12:27;;;;;;;1.50;0.60;;;16.40;56.30;;;;;;5097476;27;20223;-46
2023/03/28 00:15:12;;;;;;;0.90;0.60;;;16.40;56.30;;;;;;5095082;27;20217;-46
2023/03/28 00:17:42;;;;;;;1.27;0.67;;;16.40;56.30;;;;;;5094921;27;20196;-46
2023/03/28 00:20:14;;;;;;;0.93;0.60;;;16.40;56.30;;;;;;5105089;28;20203;-46
2023/03/28 00:22:48;;;;;;;1.23;0.80;;;16.30;56.30;;;;;;5103932;27;20203;-46
2023/03/28 00:25:17;;;;;;;3.00;1.00;;;16.30;56.30;;;;;;5109696;27;20200;-46
2023/03/28 00:27:48;;;;;;;3.10;0.80;;;16.40;56.40;;;;;;5109250;28;20207;-46
2023/03/28 00:30:19;;;;;;;1.50;0.63;;;16.30;56.30;;;;;;5104799;28;20196;-45
2023/03/28 00:32:51;;;;;;;2.57;0.90;;;16.30;56.30;;;;;;5097607;28;20314;-46
2023/03/28 00:35:20;;;;;;;1.53;0.70;;;16.30;56.40;;;;;;5107353;28;20494;-46
2023/03/28 00:37:56;;;;;;;1.97;0.83;;;16.30;56.30;;;;;;5110950;27;20228;-46
2023/03/28 00:40:39;;;;;;;2.53;1.03;;;16.30;56.40;;;;;;5108270;27;20620;-46
2023/03/28 00:43:12;;;;;;;1.93;0.93;;;16.20;56.40;;;;;;5108807;28;20579;-46
2023/03/28 00:45:44;;;;;;;2.00;1.07;;;16.30;56.40;;;;;;5063076;28;20207;-46
2023/03/28 00:48:20;;;;;;;2.63;0.90;;;16.30;56.50;;;;;;5089447;28;20731;-46
2023/03/28 00:50:48;;;;;;;1.47;0.63;;;16.20;56.40;;;;;;5109640;28;20231;-46
2023/03/28 00:53:20;;;;;;;1.07;0.50;;;16.20;56.40;;;;;;5117462;27;20192;-46
2023/03/28 00:55:58;;;;;;;2.27;0.93;;;16.20;56.40;;;;;;5098377;27;20241;-47
2023/03/28 00:58:30;;;;;;;1.37;0.87;;;16.30;56.50;;;;;;5109851;28;20552;-46
2023/03/28 01:01:02;;;;;;;1.63;0.70;;;16.20;56.40;;;;;;5097651;28;20221;-46
2023/03/28 01:03:47;;;;;;;2.17;0.80;;;16.20;56.50;;;;;;5093696;28;20269;-45
2023/03/28 01:06:23;;;;;;;2.20;0.90;;;16.20;56.50;;;;;;5102108;28;20189;-46
2023/03/28 01:08:51;;;;;;;1.10;0.57;;;16.20;56.50;;;;;;5091048;28;20601;-46
2023/03/28 01:11:23;;;;;;;1.40;0.80;;;16.20;56.50;;;;;;5105391;28;20297;-45
2023/03/28 01:13:54;;;;;;;2.30;0.80;;;16.20;56.50;;;;;;5112183;28;20647;-46
2023/03/28 01:16:23;;;;;;;2.73;0.90;;;16.20;56.50;;;;;;5110657;28;20257;-46
2023/03/28 01:18:52;;;;;;;2.17;1.10;;;16.10;56.40;;;;;;5080969;28;20192;-46
2023/03/28 01:21:34;;;;;;;2.37;0.67;;;16.20;56.50;;;;;;5093979;28;20205;-46
2023/03/28 01:24:31;;;;;;;1.17;0.60;;;16.10;56.40;;;;;;5097318;28;20192;-46
2023/03/28 01:27:42;;;;;;;2.83;0.77;;;16.10;56.50;;;;;;5105278;28;20602;-46
2023/03/28 01:30:46;;;;;;;3.53;1.00;;;16.20;56.50;;;;;;5024099;28;20675;-45
2023/03/28 01:33:56;;;;;;;1.87;0.90;;;16.10;56.50;;;;;;5122286;27;20219;-46
2023/03/28 01:36:58;;;;;;;2.03;0.80;;;16.10;56.50;;;;;;5107465;28;20835;-46
2023/03/28 01:39:57;;;;;;;3.03;1.17;;;16.10;56.50;;;;;;5091678;28;20310;-46
2023/03/28 01:43:06;;;;;;;2.43;1.20;;;16.10;56.50;;;;;;5010943;28;20641;-46
2023/03/28 01:46:20;;;;;;;1.00;0.70;;;16.10;56.60;;;;;;5022096;28;20725;-46
2023/03/28 01:49:43;;;;;;;1.47;0.80;;;16.10;56.60;;;;;;5004511;28;20215;-46
2023/03/28 01:52:46;;;;;;;1.60;0.83;;;16.10;56.60;;;;;;4976078;28;20215;-46
2023/03/28 01:55:34;;;;;;;2.00;0.80;;;16.10;57.30;;;;;;5099181;28;20189;-46
2023/03/28 01:58:35;;;;;;;1.60;0.80;;;16.00;56.60;;;;;;5072199;28;20196;-46
2023/03/28 02:01:15;;;;;;;3.60;0.80;;;16.00;56.70;;;;;;5097782;28;20192;-46
2023/03/28 02:03:55;;;;;;;2.03;0.97;;;16.00;56.70;;;;;;5076710;28;20200;-46
2023/03/28 02:06:26;;;;;;;1.33;0.90;;;16.00;56.60;;;;;;5083256;28;20294;-46
2023/03/28 02:08:58;;;;;;;2.17;0.90;;;16.00;56.70;;;;;;5062870;28;20205;-46
2023/03/28 02:11:32;;;;;;;2.53;1.43;;;16.00;56.60;;;;;;5075775;28;20204;-46
2023/03/28 02:14:21;;;;;;;2.60;1.20;;;16.00;56.60;;;;;;5074014;28;20195;-46
2023/03/28 02:16:59;;;;;;;2.13;0.90;;;16.00;56.60;;;;;;5056656;28;20271;-46
2023/03/28 02:19:33;;;;;;;1.80;0.80;;;16.00;56.60;;;;;;5065730;28;20609;-46
2023/03/28 02:22:23;;;;;;;1.93;1.07;;;16.00;56.60;;;;;;5075888;28;20211;-46
2023/03/28 02:24:52;;;;;;;2.60;0.80;;;16.00;56.60;;;;;;5072569;28;20507;-46
2023/03/28 02:27:21;;;;;;;1.67;0.73;;;16.00;56.60;;;;;;5075786;28;20636;-46
2023/03/28 02:29:49;;;;;;;2.93;1.60;;;16.00;56.60;;;;;;5082459;28;20220;-46
2023/03/28 02:32:22;;;;;;;2.30;1.20;;;16.00;56.60;;;;;;5091017;28;21015;-46
2023/03/28 02:34:55;;;;;;;3.23;1.00;;;16.00;56.60;;;;;;5091684;28;20216;-46
2023/03/28 02:38:07;;;;;;;1.83;1.00;;;16.00;56.60;;;;;;5068811;28;20224;-46
2023/03/28 02:41:06;;;;;;;2.00;1.13;;;15.90;56.60;;;;;;5125432;27;20237;-46
2023/03/28 02:44:22;;;;;;;1.60;0.90;;;16.00;56.60;;;;;;5128550;27;20629;-46
2023/03/28 02:47:31;;;;;;;2.27;1.17;;;15.90;56.60;;;;;;5107852;28;20592;-46
2023/03/28 02:50:24;;;;;;;2.90;1.13;;;15.90;56.60;;;;;;5106993;28;20602;-46
2023/03/28 02:53:31;;;;;;;1.60;0.90;;;15.90;56.60;;;;;;5098150;28;20376;-46
2023/03/28 02:56:19;;;;;;;1.87;1.27;;;15.90;56.60;;;;;;5108041;28;20188;-46
2023/03/28 02:59:09;;;;;;;1.93;1.20;;;15.90;56.60;;;;;;5099939;28;20222;-46
2023/03/28 03:01:40;;;;;;;1.60;1.37;;;15.90;56.60;;;;;;5120661;27;20212;-46
2023/03/28 03:04:23;;;;;;;2.50;1.00;;;15.90;56.70;;;;;;5109517;28;20727;-46
2023/03/28 03:06:56;;;;;;;2.10;1.17;;;15.80;56.60;;;;;;5120742;27;20279;-46
2023/03/28 03:09:26;;;;;;;1.83;0.90;;;15.90;56.60;;;;;;5112674;28;20669;-46
2023/03/28 03:11:56;;;;;;;2.73;0.90;;;15.90;56.60;;;;;;5133626;27;20212;-46
2023/03/28 03:14:27;;;;;;;1.93;1.07;;;15.90;56.60;;;;;;5114515;28;20192;-46
2023/03/28 03:16:57;;;;;;;2.47;1.20;;;15.90;56.60;;;;;;5113902;27;20192;-46
2023/03/28 03:19:29;;;;;;;2.20;0.90;;;15.90;56.60;;;;;;5106410;27;20201;-46
2023/03/28 03:22:01;;;;;;;1.43;0.87;;;15.90;56.60;;;;;;5109694;28;20223;-46
2023/03/28 03:24:29;;;;;;;1.63;1.10;;;15.90;56.60;;;;;;5103800;28;20209;-46
2023/03/28 03:26:59;;;;;;;2.10;1.00;;;15.90;56.60;;;;;;5113723;28;20223;-46
2023/03/28 03:29:42;;;;;;;1.47;1.00;;;15.80;56.60;;;;;;5125706;27;20342;-46
2023/03/28 03:32:11;;;;;;;1.23;0.97;;;15.80;56.60;;;;;;5108494;28;20533;-46
2023/03/28 03:34:42;;;;;;;1.93;1.03;;;15.80;56.60;;;;;;5112531;28;20207;-46
2023/03/28 03:37:13;;;;;;;1.53;1.00;;;15.80;56.60;;;;;;5128296;27;20195;-46
2023/03/28 03:39:45;;;;;;;2.07;1.50;;;15.80;56.60;;;;;;5115520;27;20194;-46
2023/03/28 03:42:16;;;;;;;1.80;1.30;;;15.80;57.30;;;;;;5106289;28;20197;-46
2023/03/28 03:44:48;;;;;;;1.30;0.80;;;15.80;56.60;;;;;;5098300;28;20201;-46
2023/03/28 03:47:18;;;;;;;1.10;0.90;;;15.80;56.60;;;;;;5118989;27;20204;-46
2023/03/28 03:49:51;;;;;;;2.63;1.20;;;15.80;56.60;;;;;;5107983;28;20212;-46
2023/03/28 03:52:22;;;;;;;1.57;1.10;;;15.80;56.60;;;;;;5108403;28;20875;-46
2023/03/28 03:54:54;;;;;;;1.43;1.13;;;15.70;56.50;;;;;;5109985;28;20207;-46
2023/03/28 03:57:38;;;;;;;1.47;0.87;;;15.80;56.60;;;;;;5096748;28;20289;-46
2023/03/28 04:00:10;;;;;;;2.70;1.20;;;15.80;56.60;;;;;;5106032;27;20212;-46
2023/03/28 04:02:49;;;;;;;1.40;1.00;;;15.70;56.60;;;;;;5109082;28;20204;-46
2023/03/28 04:05:20;;;;;;;1.10;1.00;;;15.70;56.50;;;;;;5109647;27;20286;-46
2023/03/28 04:07:51;;;;;;;3.00;1.70;;;15.70;56.60;;;;;;5100698;28;20203;-46
2023/03/28 04:10:23;;;;;;;2.80;1.10;;;15.70;56.60;;;;;;5094653;28;20563;-46
2023/03/28 04:12:56;;;;;;;1.77;1.00;;;15.70;56.50;;;;;;5122592;27;20525;-46
2023/03/28 04:15:27;;;;;;;3.90;1.10;;;15.70;56.60;;;;;;5097967;27;20212;-45
2023/03/28 04:17:58;;;;;;;1.30;1.20;;;15.70;56.60;;;;;;5099706;28;20337;-46
2023/03/28 04:20:30;;;;;;;1.30;0.93;;;15.70;56.60;;;;;;5108889;27;20200;-46
2023/03/28 04:23:04;;;;;;;1.40;0.93;;;15.70;56.60;;;;;;5103640;28;20235;-46
2023/03/28 04:25:33;;;;;;;2.67;1.27;;;15.70;57.10;;;;;;5091473;28;20231;-46
2023/03/28 04:28:04;;;;;;;1.90;0.93;;;15.70;56.60;;;;;;5101470;28;20197;-46
2023/03/28 04:30:34;;;;;;;1.00;0.90;;;15.70;56.60;;;;;;5107053;27;20209;-46
2023/03/28 04:33:04;;;;;;;1.30;1.20;;;15.70;56.60;;;;;;5104867;27;20207;-45
2023/03/28 04:35:34;;;;;;;3.23;1.27;;;15.60;56.50;;;;;;5105967;28;20201;-46
2023/03/28 04:38:06;;;;;;;2.03;0.93;;;15.70;56.60;;;;;;5106399;28;20684;-45
2023/03/28 04:40:48;;;;;;;1.67;1.17;;;15.70;56.60;;;;;;5110050;28;20669;-46
2023/03/28 04:43:19;;;;;;;1.83;0.97;;;15.70;56.60;;;;;;5109080;28;20199;-46
2023/03/28 04:45:50;;;;;;;1.50;1.00;;;15.70;56.60;;;;;;5107679;28;20641;-46
2023/03/28 04:48:24;;;;;;;2.00;1.20;;;15.60;56.50;;;;;;5085210;28;20216;-46
2023/03/28 04:50:52;;;;;;;1.87;1.10;;;15.60;56.60;;;;;;5090243;28;20297;-46
2023/03/28 04:53:22;;;;;;;2.10;0.97;;;15.60;56.50;;;;;;5073478;28;20206;-46
2023/03/28 04:55:52;;;;;;;1.67;0.90;;;15.60;56.50;;;;;;5108233;28;20680;-46
2023/03/28 04:58:25;;;;;;;1.63;1.10;;;15.60;56.50;;;;;;5117464;27;20625;-46
2023/03/28 05:00:55;;;;;;;1.47;1.00;;;15.60;56.50;;;;;;5108607;28;20645;-46
2023/03/28 05:03:24;;;;;;;1.70;1.17;;;15.60;56.50;;;;;;5110644;27;20596;-46
2023/03/28 05:05:56;;;;;;;2.73;1.40;;;15.60;56.40;;;;;;5095037;28;20564;-46
2023/03/28 05:08:26;;;;;;;1.70;0.97;;;15.60;56.40;;;;;;5097025;28;20193;-45
2023/03/28 05:10:57;;;;;;;1.50;0.93;;;15.60;56.40;;;;;;5094949;28;20228;-46
2023/03/28 05:13:29;;;;;;;2.77;1.70;;;15.60;56.40;;;;;;5094709;28;20193;-46
2023/03/28 05:15:57;;;;;;;2.10;1.30;;;15.60;56.30;;;;;;5082360;28;20278;-46
2023/03/28 05:18:28;;;;;;;2.33;1.10;;;15.60;56.30;;;;;;5109935;27;20188;-46
2023/03/28 05:20:56;;;;;;;1.80;1.47;;;15.60;56.30;;;;;;5108592;28;20192;-45
2023/03/28 05:23:29;;;;;;;3.23;1.27;;;15.50;56.20;;;;;;5105178;28;20254;-46
2023/03/28 05:26:00;;;;;;;1.43;0.90;;;15.50;56.20;;;;;;5105684;28;20188;-46
2023/03/28 05:28:28;;;;;;;1.70;1.20;;;15.60;56.30;;;;;;5106638;28;20246;-46
2023/03/28 05:31:00;;;;;;;2.37;1.30;;;15.50;56.20;;;;;;5106065;28;20215;-46
2023/03/28 05:33:31;;;;;;;18.07;4.37;;;15.50;56.20;;;;;;5107169;28;20216;-46
2023/03/28 05:36:00;;;;;;;21.47;4.70;;;15.60;56.90;;;;;;5098357;28;20205;-46
2023/03/28 05:38:32;;;;;;;13.53;4.40;;;15.50;56.80;;;;;;5103766;28;20627;-46
2023/03/28 05:41:06;;;;;;;18.13;5.30;;;15.60;57.10;;;;;;5075257;28;20272;-46
2023/03/28 05:43:38;;;;;;;12.47;4.47;;;15.50;57.40;;;;;;5104751;28;20737;-46
2023/03/28 05:46:11;;;;;;;11.97;4.77;;;15.50;57.20;;;;;;5099489;28;20193;-46
2023/03/28 05:48:45;;;;;;;15.73;5.37;;;15.50;57.90;;;;;;5098572;28;20192;-46
2023/03/28 05:51:16;;;;;;;12.90;5.30;;;15.50;58.60;;;;;;5090330;28;20722;-46
2023/03/28 05:53:46;;;;;;;13.53;4.73;;;15.50;59.10;;;;;;5090818;28;20616;-46
2023/03/28 05:56:17;;;;;;;18.53;5.73;;;15.60;59.60;;;;;;5091913;28;20185;-46
2023/03/28 05:58:49;;;;;;;13.43;5.13;;;15.60;59.60;;;;;;5100362;28;20197;-46
2023/03/28 06:01:22;;;;;;;16.03;4.27;;;15.60;60.70;;;;;;5115722;28;20759;-46
2023/03/28 06:03:54;;;;;;;10.40;3.43;;;15.60;59.80;;;;;;5112474;28;20653;-46
2023/03/28 06:06:22;;;;;;;11.97;4.40;;;15.60;59.40;;;;;;5108082;28;20656;-46
2023/03/28 06:08:52;;;;;;;9.57;4.00;;;15.60;59.00;;;;;;5109148;28;20211;-45
2023/03/28 06:11:22;;;;;;;10.37;3.83;;;15.50;58.70;;;;;;5104763;28;20235;-45
2023/03/28 06:13:53;;;;;;;13.20;3.73;;;15.50;58.50;;;;;;5107342;28;20196;-46
2023/03/28 06:16:30;;;;;;;11.87;4.43;;;15.50;58.30;;;;;;5108680;28;20195;-46
2023/03/28 06:19:00;;;;;;;9.07;3.90;;;15.50;58.10;;;;;;5116151;28;20215;-46
2023/03/28 06:21:46;;;;;;;8.17;3.87;;;15.60;58.10;;;;;;5112675;27;20195;-46
2023/03/28 06:24:16;;;;;;;7.70;3.53;;;15.50;57.80;;;;;;5078719;28;20216;-46
2023/03/28 06:26:46;;;;;;;9.53;3.67;;;15.50;57.70;;;;;;5104659;27;20622;-46
2023/03/28 06:29:15;;;;;;;7.10;3.53;;;15.50;57.60;;;;;;5114507;27;20429;-46
2023/03/28 06:31:47;;;;;;;8.83;3.10;;;15.60;57.50;;;;;;5110719;27;20227;-46
2023/03/28 06:34:17;;;;;;;6.00;3.80;;;15.60;57.40;;;;;;5105660;27;20214;-46
2023/03/28 06:36:49;;;;;;;7.33;3.53;;;15.60;57.30;;;;;;5100973;27;20756;-46
2023/03/28 06:39:33;;;;;;;7.80;3.60;;;15.60;57.30;;;;;;5107128;27;20204;-46
2023/03/28 06:42:03;;;;;;;6.00;3.23;;;15.60;57.20;;;;;;5111073;27;20208;-46
2023/03/28 06:44:33;;;;;;;7.20;3.33;;;15.60;56.90;;;;;;5095381;28;20685;-46
2023/03/28 06:47:01;;;;;;;7.67;3.30;;;15.60;56.90;;;;;;5127888;27;20204;-45
2023/03/28 06:49:32;;;;;;;6.50;3.20;;;15.70;56.90;;;;;;5112425;27;20211;-46
2023/03/28 06:52:01;;;;;;;6.03;2.93;;;15.70;56.90;;;;;;5107198;27;20212;-46
2023/03/28 06:54:33;;;;;;;7.03;2.80;;;15.60;56.80;;;;;;5115425;27;20200;-46
2023/03/28 06:57:03;;;;;;;5.40;2.70;;;15.70;56.80;;;;;;5113255;27;20215;-46
2023/03/28 06:59:33;;;;;;;4.47;2.23;;;15.60;56.80;;;;;;5094100;28;20217;-46
2023/03/28 07:02:02;;;;;;;6.37;2.53;;;15.60;56.70;;;;;;5067769;28;20701;-46
2023/03/28 07:04:33;;;;;;;7.87;3.33;;;15.70;56.60;;;;;;5090812;27;20219;-46
2023/03/28 07:07:04;;;;;;;4.57;2.67;;;15.60;56.60;;;;;;5070645;27;20210;-46
2023/03/28 07:09:39;;;;;;;5.23;2.97;;;15.60;56.60;;;;;;5108220;28;20222;-46
2023/03/28 07:12:09;;;;;;;6.43;3.07;;;15.60;56.50;;;;;;5090166;28;20597;-46
2023/03/28 07:14:43;;;;;;;4.57;2.50;;;15.70;56.50;;;;;;5105657;27;20278;-46
2023/03/28 07:17:12;;;;;;;6.33;2.90;;;15.60;56.60;;;;;;5101458;27;20209;-46
2023/03/28 07:19:48;;;;;;;7.23;2.73;;;15.70;56.60;;;;;;5109962;28;20230;-46
2023/03/28 07:22:19;;;;;;;6.33;2.80;;;15.70;56.60;;;;;;5105850;28;20196;-46
2023/03/28 07:24:53;;;;;;;4.90;2.40;;;15.70;56.70;;;;;;5102881;27;20203;-46
2023/03/28 07:27:24;;;;;;;7.87;3.10;;;15.60;56.60;;;;;;5110109;28;20223;-46
2023/03/28 07:29:55;;;;;;;6.00;2.60;;;15.70;57.00;;;;;;5082385;28;20233;-46
2023/03/28 07:32:27;;;;;;;6.67;3.00;;;15.70;57.00;;;;;;5109381;28;20253;-46
2023/03/28 07:35:08;;;;;;;5.00;2.97;;;15.70;57.10;;;;;;5091814;28;20212;-46
2023/03/28 07:37:53;;;;;;;6.93;2.70;;;15.70;57.00;;;;;;5104099;27;20773;-46
2023/03/28 07:40:24;;;;;;;6.50;3.00;;;15.60;56.80;;;;;;5121935;27;20188;-46
2023/03/28 07:42:54;;;;;;;4.63;2.63;;;15.70;57.10;;;;;;5092897;28;20572;-46
2023/03/28 07:45:23;;;;;;;5.27;2.57;;;15.70;56.80;;;;;;5112178;27;20215;-46
2023/03/28 07:47:57;;;;;;;4.17;2.33;;;15.70;56.80;;;;;;5107016;28;20291;-47
2023/03/28 07:50:30;;;;;;;3.73;2.27;;;15.70;56.80;;;;;;5099050;28;20201;-46
2023/03/28 07:52:59;;;;;;;4.77;2.70;;;15.70;56.70;;;;;;5107387;28;20256;-46
2023/03/28 07:55:28;;;;;;;4.77;2.50;;;15.70;57.00;;;;;;5083598;28;20207;-45
2023/03/28 07:58:12;;;;;;;3.10;2.20;;;15.80;57.90;;;;;;5089169;27;20244;-46
2023/03/28 08:00:44;;;;;;;4.40;2.57;;;15.80;58.80;;;;;;5100694;27;20215;-46
2023/03/28 08:03:15;;;;;;;3.77;1.83;;;15.80;58.60;;;;;;5087143;28;20578;-46
2023/03/28 08:05:51;;;;;;;5.30;2.07;;;15.90;59.10;;;;;;5109108;28;20192;-46
2023/03/28 08:08:20;;;;;;;6.03;2.60;;;15.90;58.80;;;;;;5108580;27;20187;-46
2023/03/28 08:10:50;;;;;;;4.70;2.00;;;15.90;59.30;;;;;;5092231;28;20236;-46
2023/03/28 08:13:34;;;;;;;4.93;2.33;;;16.00;59.40;;;;;;5103409;28;20224;-46
2023/03/28 08:16:05;;;;;;;5.47;2.40;;;16.00;59.60;;;;;;5083699;28;20629;-46
2023/03/28 08:18:38;;;;;;;5.43;2.20;;;16.00;60.20;;;;;;5106144;28;20209;-46
2023/03/28 08:21:09;;;;;;;5.80;2.43;;;16.10;60.50;;;;;;5096780;28;20573;-46
2023/03/28 08:23:38;;;;;;;7.47;2.63;;;16.10;60.90;;;;;;5094203;28;20919;-46
2023/03/28 08:26:10;;;;;;;10.00;3.33;;;16.10;60.80;;;;;;5106816;28;20194;-46
2023/03/28 08:28:43;;;;;;;7.20;3.63;;;16.10;61.00;;;;;;5091930;28;21501;-48
2023/03/28 08:31:14;;;;;;;12.00;2.63;;;16.20;61.10;;;;;;5109457;28;20208;-46
2023/03/28 08:33:50;;;;;;;11.77;3.83;;;16.20;60.90;;;;;;5074405;28;20253;-46
2023/03/28 08:36:28;;;;;;;10.13;3.90;;;16.20;61.20;;;;;;5093214;28;20649;-46
2023/03/28 08:39:04;;;;;;;11.10;4.00;;;16.30;61.20;;;;;;5099329;27;20229;-46
2023/03/28 08:42:04;;;;;;;9.57;3.97;;;16.30;61.00;;;;;;5112707;27;20192;-46
2023/03/28 08:45:21;;;;;;;10.03;4.07;;;16.30;61.50;;;;;;5111572;28;20224;-46
2023/03/28 08:48:19;;;;;;;8.23;3.17;;;16.30;60.60;;;;;;5101106;28;20269;-46
2023/03/28 08:51:24;;;;;;;7.70;3.30;;;16.40;60.40;;;;;;5106072;28;20281;-46
2023/03/28 08:54:45;;;;;;;9.33;3.17;;;16.40;60.10;;;;;;5109435;27;20646;-45
2023/03/28 08:57:25;;;;;;;9.47;3.37;;;16.50;60.10;;;;;;5055890;28;20242;-46
2023/03/28 09:00:22;;;;;;;5.43;2.70;;;16.50;59.80;;;;;;5100939;28;20551;-46
2023/03/28 09:02:54;;;;;;;6.80;2.80;;;16.50;59.70;;;;;;5101606;28;20200;-46
2023/03/28 09:06:06;;;;;;;6.80;2.87;;;16.50;59.50;;;;;;5091873;28;20204;-46
2023/03/28 09:08:56;;;;;;;4.93;2.73;;;16.60;59.60;;;;;;5049786;28;20252;-46
2023/03/28 09:12:15;;;;;;;6.67;2.63;;;16.60;59.50;;;;;;5077468;28;20240;-46
2023/03/28 09:15:21;;;;;;;7.37;2.83;;;16.60;59.30;;;;;;5041347;28;20622;-47
2023/03/28 09:18:15;;;;;;;14.13;3.20;;;16.60;59.30;;;;;;5053087;28;20290;-46
2023/03/28 09:21:01;;;;;;;7.30;3.00;;;16.70;59.30;;;;;;5108132;27;20633;-48
2023/03/28 09:24:10;;;;;;;7.93;2.87;;;16.70;58.90;;;;;;5098618;28;20556;-46
2023/03/28 09:26:54;;;;;;;7.37;2.63;;;16.80;58.60;;;;;;5082804;28;20203;-46
2023/03/28 09:29:40;;;;;;;5.63;2.67;;;16.80;58.10;;;;;;5106466;28;20630;-46
2023/03/28 09:32:17;;;;;;;6.17;2.83;;;16.80;57.70;;;;;;5105269;28;20633;-46
2023/03/28 09:34:51;;;;;;;5.37;2.40;;;16.80;57.50;;;;;;5088237;28;20216;-46
2023/03/28 09:37:45;;;;;;;6.77;2.23;;;16.80;57.30;;;;;;5104726;28;20318;-46
2023/03/28 09:40:30;;;;;;;6.10;2.33;;;16.80;57.10;;;;;;5108291;28;20203;-46
2023/03/28 09:43:14;;;;;;;5.17;2.30;;;16.80;56.90;;;;;;5108263;28;20213;-46
2023/03/28 09:46:08;;;;;;;5.13;2.03;;;16.80;56.80;;;;;;5108284;28;20192;-46
2023/03/28 09:48:37;;;;;;;4.63;2.00;;;16.80;56.70;;;;;;5107960;28;20204;-46
2023/03/28 09:51:15;;;;;;;5.30;2.63;;;16.80;56.60;;;;;;5090334;28;20208;-46
2023/03/28 09:53:51;;;;;;;4.63;1.80;;;16.80;56.50;;;;;;5108941;28;20712;-46
2023/03/28 09:56:32;;;;;;;7.83;2.10;;;16.80;56.40;;;;;;5109396;27;20644;-46
2023/03/28 09:59:02;;;;;;;4.17;1.90;;;16.80;56.30;;;;;;5092040;28;20883;-46
2023/03/28 10:01:50;;;;;;;5.67;2.10;;;16.80;56.30;;;;;;5077062;28;20202;-46
2023/03/28 10:04:29;;;;;;;3.90;1.60;;;16.80;56.30;;;;;;5109483;28;20220;-46
2023/03/28 10:07:13;;;;;;;4.30;2.17;;;16.80;56.20;;;;;;5112510;28;20571;-46
2023/03/28 10:09:53;;;;;;;5.73;2.00;;;16.80;56.10;;;;;;5099787;28;20192;-46
2023/03/28 10:12:34;;;;;;;4.57;1.80;;;16.80;56.00;;;;;;5098993;28;20336;-46
2023/03/28 10:15:27;;;;;;;4.73;1.63;;;16.80;56.00;;;;;;5094198;27;20743;-46
2023/03/28 10:18:18;;;;;;;5.63;2.07;;;16.80;55.80;;;;;;5105841;28;20292;-46
2023/03/28 10:20:50;;;;;;;3.27;1.77;;;16.80;55.80;;;;;;5095213;28;20203;-46
2023/03/28 10:23:43;;;;;;;3.03;1.57;;;16.80;55.50;;;;;;5091177;28;20212;-46
2023/03/28 10:26:22;;;;;;;2.33;1.50;;;16.80;55.50;;;;;;5105855;27;20207;-46
2023/03/28 10:29:09;;;;;;;4.73;1.80;;;16.80;55.40;;;;;;5095339;28;20227;-46
2023/03/28 10:31:40;;;;;;;2.97;1.40;;;16.80;55.40;;;;;;5094736;28;20212;-46
2023/03/28 10:34:29;;;;;;;6.80;2.03;;;16.80;55.30;;;;;;5089396;28;20672;-46
2023/03/28 10:37:01;;;;;;;3.77;1.57;;;16.80;55.10;;;;;;5111554;27;20195;-46
2023/03/28 10:39:34;;;;;;;3.00;1.47;;;16.80;55.10;;;;;;5110384;27;20192;-46
2023/03/28 10:42:04;;;;;;;5.67;1.90;;;16.80;55.10;;;;;;5108884;27;20212;-46
2023/03/28 10:44:35;;;;;;;3.87;1.40;;;16.80;55.00;;;;;;5111227;28;20208;-46
2023/03/28 10:47:14;;;;;;;3.77;1.50;;;16.80;55.00;;;;;;5105840;28;20220;-46
2023/03/28 10:49:54;;;;;;;3.37;1.60;;;16.80;54.90;;;;;;5111069;28;20177;-45
2023/03/28 10:53:01;;;;;;;4.23;1.73;;;16.80;54.90;;;;;;5092978;28;20212;-46
2023/03/28 10:55:41;;;;;;;3.33;1.60;;;16.80;54.80;;;;;;5102077;27;20207;-46
2023/03/28 10:58:34;;;;;;;4.50;1.70;;;16.80;54.80;;;;;;5095138;28;20355;-46
2023/03/28 11:01:42;;;;;;;4.13;1.67;;;16.80;54.70;;;;;;5111617;27;20205;-46
2023/03/28 11:04:33;;;;;;;2.00;1.53;;;16.80;54.70;;;;;;5024117;28;20203;-46
2023/03/28 11:07:23;;;;;;;3.00;1.27;;;16.80;54.60;;;;;;5104615;28;20196;-46
2023/03/28 11:10:31;;;;;;;2.50;1.13;;;16.80;54.70;;;;;;5100649;27;20614;-46
2023/03/28 11:13:27;;;;;;;3.47;1.77;;;16.80;54.70;;;;;;5098659;28;20200;-46
2023/03/28 11:16:32;;;;;;;2.80;1.50;;;16.80;54.70;;;;;;5110129;27;20188;-46
2023/03/28 11:19:33;;;;;;;2.63;1.40;;;16.80;54.80;;;;;;5107492;28;20189;-46
2023/03/28 11:22:29;;;;;;;3.70;1.60;;;16.80;54.70;;;;;;5114878;27;20229;-46
2023/03/28 11:25:41;;;;;;;2.30;1.23;;;16.80;54.70;;;;;;5111299;27;20196;-46
2023/03/28 11:28:47;;;;;;;2.67;1.40;;;16.80;54.70;;;;;;5094508;28;20648;-46
2023/03/28 11:31:52;;;;;;;3.07;1.30;;;16.80;54.60;;;;;;5110470;28;20235;-46
2023/03/28 11:34:32;;;;;;;3.37;1.30;;;16.80;54.60;;;;;;5104755;28;20204;-46
2023/03/28 11:37:21;;;;;;;3.53;1.80;;;16.80;54.60;;;;;;5109146;28;20204;-45
2023/03/28 11:40:24;;;;;;;4.63;1.37;;;16.80;54.40;;;;;;5091993;28;20210;-45
2023/03/28 11:43:03;;;;;;;2.37;1.00;;;16.80;54.40;;;;;;5081844;28;20204;-46
2023/03/28 11:45:35;;;;;;;2.20;1.70;;;16.80;54.20;;;;;;5080362;28;20200;-46
2023/03/28 11:48:25;;;;;;;3.37;1.50;;;16.80;54.20;;;;;;5096882;28;20382;-46
2023/03/28 11:51:18;;;;;;;2.67;1.57;;;16.80;54.00;;;;;;5109523;27;20219;-46
2023/03/28 11:54:13;;;;;;;3.40;1.10;;;16.80;54.00;;;;;;5115176;27;20625;-46
2023/03/28 11:57:05;;;;;;;2.30;1.17;;;16.80;53.90;;;;;;5101697;27;20671;-46
2023/03/28 12:00:04;;;;;;;1.80;1.23;;;16.80;53.90;;;;;;5104560;28;20196;-45
2023/03/28 12:02:51;;;;;;;3.40;1.17;;;16.80;53.80;;;;;;5093469;28;20202;-46
2023/03/28 12:05:49;;;;;;;2.43;1.20;;;16.80;53.70;;;;;;5092869;28;20189;-46
2023/03/28 12:09:11;;;;;;;4.77;1.17;;;16.80;53.50;;;;;;5096062;28;20204;-46
2023/03/28 12:11:49;;;;;;;2.67;1.03;;;16.80;53.60;;;;;;5059900;27;20656;-46
2023/03/28 12:14:55;;;;;;;2.30;1.50;;;16.80;53.60;;;;;;5077355;28;20192;-46
2023/03/28 12:17:43;;;;;;;1.97;1.00;;;16.80;53.60;;;;;;5109468;28;20207;-46
2023/03/28 12:20:38;;;;;;;2.57;1.30;;;16.80;53.60;;;;;;5090783;28;20192;-46
2023/03/28 12:23:27;;;;;;;1.80;1.10;;;16.80;53.50;;;;;;5093425;28;20220;-47
2023/03/28 12:26:37;;;;;;;2.13;1.40;;;16.80;53.50;;;;;;5080150;28;20253;-45
2023/03/28 12:29:24;;;;;;;4.80;1.50;;;16.80;53.40;;;;;;5109308;28;20645;-46
2023/03/28 12:32:08;;;;;;;1.97;0.83;;;16.80;53.50;;;;;;5109661;27;20212;-46
2023/03/28 12:34:50;;;;;;;2.47;1.40;;;16.80;53.40;;;;;;5097024;28;20650;-46
2023/03/28 12:37:59;;;;;;;3.67;0.90;;;16.90;53.40;;;;;;5110305;28;20185;-46
2023/03/28 12:41:02;;;;;;;2.13;1.33;;;16.90;53.40;;;;;;5028499;28;20207;-46
2023/03/28 12:43:53;;;;;;;1.83;0.90;;;16.90;53.40;;;;;;5030052;28;20207;-46
2023/03/28 12:46:28;;;;;;;3.13;1.17;;;16.80;53.30;;;;;;5021635;28;20290;-46
2023/03/28 12:49:00;;;;;;;3.30;1.20;;;16.80;53.30;;;;;;5009662;28;20252;-46
2023/03/28 12:51:43;;;;;;;2.50;1.13;;;16.90;53.30;;;;;;5099974;27;20236;-46
2023/03/28 12:54:19;;;;;;;1.87;0.90;;;16.90;53.40;;;;;;5106302;28;20196;-46
2023/03/28 12:57:32;;;;;;;1.47;0.80;;;16.90;53.40;;;;;;5111205;27;20208;-46
2023/03/28 13:00:28;;;;;;;3.47;1.00;;;16.90;53.40;;;;;;5092523;28;20666;-46
2023/03/28 13:03:32;;;;;;;2.23;1.20;;;16.90;53.40;;;;;;5115004;27;20192;-46
2023/03/28 13:06:23;;;;;;;1.87;0.90;;;16.90;53.30;;;;;;5108931;27;20665;-46
2023/03/28 13:09:25;;;;;;;2.07;0.90;;;16.90;53.20;;;;;;5092565;28;20246;-46
2023/03/28 13:12:02;;;;;;;1.17;0.80;;;17.00;53.30;;;;;;5106833;27;20224;-46
2023/03/28 13:14:40;;;;;;;1.93;0.80;;;16.90;53.30;;;;;;5081308;28;20224;-46
2023/03/28 13:17:32;;;;;;;2.20;1.20;;;16.90;53.10;;;;;;5074499;28;20257;-46
2023/03/28 13:20:26;;;;;;;1.60;1.13;;;17.00;53.10;;;;;;5069710;28;20287;-46
2023/03/28 13:23:01;;;;;;;3.00;1.00;;;16.90;53.00;;;;;;5108295;28;20200;-46
2023/03/28 13:25:38;;;;;;;2.10;0.90;;;17.00;53.10;;;;;;5096662;28;20624;-46
2023/03/28 13:28:30;;;;;;;1.83;0.80;;;17.00;53.10;;;;;;5099498;28;20203;-46
2023/03/28 13:31:17;;;;;;;2.23;1.20;;;17.00;53.10;;;;;;5100726;28;20200;-47
2023/03/28 13:34:03;;;;;;;1.83;1.00;;;17.00;53.10;;;;;;5103834;28;20203;-46
2023/03/28 13:36:53;;;;;;;1.80;0.93;;;17.00;53.10;;;;;;5113868;28;20253;-46
2023/03/28 13:39:27;;;;;;;1.87;0.80;;;17.00;53.10;;;;;;5118150;28;20245;-46
2023/03/28 13:41:59;;;;;;;1.43;0.90;;;17.00;53.10;;;;;;5088819;28;20200;-46
2023/03/28 13:44:41;;;;;;;1.80;0.80;;;17.00;53.10;;;;;;5116888;28;20576;-46
2023/03/28 13:47:19;;;;;;;2.80;1.00;;;17.00;53.00;;;;;;5099066;28;20215;-46
2023/03/28 13:50:25;;;;;;;3.23;1.00;;;17.00;53.10;;;;;;5085042;28;20192;-46
2023/03/28 13:52:55;;;;;;;1.00;0.80;;;17.00;53.00;;;;;;5107806;28;20218;-46
2023/03/28 13:55:27;;;;;;;1.93;0.90;;;17.00;53.00;;;;;;5089520;28;20219;-47